createdAt,value
2022-08-17T04:06:13.544Z,16.00
2022-08-17T04:07:14.436Z,16.00
2022-08-17T04:08:14.411Z,20.00
2022-08-17T04:09:14.403Z,24.00
2022-08-17T04:10:14.395Z,28.00
2022-08-17T04:11:14.403Z,32.00
2022-08-17T04:12:14.412Z,36.00
2022-08-17T04:13:14.372Z,40.00
2022-08-17T04:14:14.360Z,44.00
2022-08-17T04:15:14.376Z,52.00
2022-08-17T04:16:14.340Z,60.00
2022-08-17T04:17:14.325Z,68.00
2022-08-17T04:18:14.296Z,80.00
2022-08-17T04:19:14.299Z,96.00
2022-08-17T04:20:14.316Z,108.00
2022-08-17T04:21:14.284Z,112.00
2022-08-17T04:22:31.401Z,124.00
2022-08-17T04:23:14.257Z,128.00
2022-08-17T04:24:14.230Z,132.00
2022-08-17T04:25:14.300Z,144.00
2022-08-17T04:26:53.837Z,152.00
2022-08-17T04:27:14.214Z,168.00
2022-08-17T04:28:15.819Z,188.00
2022-08-17T04:29:14.184Z,208.00
2022-08-17T04:30:14.205Z,232.00
2022-08-17T04:31:14.162Z,260.00
2022-08-17T04:32:14.161Z,288.00
2022-08-17T04:33:14.505Z,316.00
2022-08-17T04:34:14.125Z,344.00
2022-08-17T04:35:14.121Z,368.00
2022-08-17T04:36:14.131Z,388.00
2022-08-17T04:37:14.133Z,412.00
2022-08-17T04:38:14.098Z,428.00
2022-08-17T04:39:14.087Z,448.00
2022-08-17T04:40:14.098Z,472.00
2022-08-17T04:41:14.057Z,500.00
2022-08-17T04:42:14.027Z,520.00
2022-08-17T04:43:14.021Z,544.00
2022-08-17T04:44:14.016Z,560.00
2022-08-17T04:45:14.023Z,576.00
2022-08-17T04:46:13.998Z,584.00
2022-08-17T04:47:13.991Z,588.00
2022-08-17T04:48:13.959Z,588.00
2022-08-17T04:49:14.005Z,584.00
2022-08-17T04:50:13.955Z,592.00
2022-08-17T04:51:13.954Z,600.00
2022-08-17T04:52:32.196Z,612.00
2022-08-17T04:53:13.910Z,636.00
2022-08-17T04:54:13.908Z,660.00
2022-08-17T04:55:13.907Z,688.00
2022-08-17T04:56:17.067Z,720.00
2022-08-17T04:57:13.888Z,744.00
2022-08-17T04:58:13.865Z,772.00
2022-08-17T04:59:13.882Z,796.00
2022-08-17T05:00:13.853Z,820.00
2022-08-17T05:01:13.916Z,844.00
2022-08-17T05:02:13.840Z,872.00
2022-08-17T05:03:13.804Z,900.00
2022-08-17T05:04:32.894Z,928.00
2022-08-17T05:05:13.794Z,956.00
2022-08-17T05:06:13.801Z,988.00
2022-08-17T05:07:13.748Z,1020.00
2022-08-17T05:08:13.834Z,1052.00
2022-08-17T05:09:13.747Z,1096.00
2022-08-17T05:10:13.763Z,1144.00
2022-08-17T05:11:13.755Z,1192.00
2022-08-17T05:12:13.715Z,1248.00
2022-08-17T05:13:13.723Z,1304.00
2022-08-17T05:14:13.705Z,1360.00
2022-08-17T05:15:13.722Z,1412.00
2022-08-17T05:16:13.676Z,1464.00
2022-08-17T05:17:20.337Z,1516.00
2022-08-17T05:18:13.678Z,1580.00
2022-08-17T05:19:13.649Z,1640.00
2022-08-17T05:20:13.624Z,1704.00
2022-08-17T05:21:13.602Z,1768.00
2022-08-17T05:22:13.591Z,1840.00
2022-08-17T05:23:13.624Z,1920.00
2022-08-17T05:24:38.236Z,2000.00
2022-08-17T05:25:13.563Z,2084.00
2022-08-17T05:26:25.432Z,2156.00
2022-08-17T05:27:15.087Z,2212.00
2022-08-17T05:28:13.529Z,2224.00
2022-08-17T05:29:14.272Z,2208.00
2022-08-17T05:30:13.512Z,2188.00
2022-08-17T05:31:13.495Z,2168.00
2022-08-17T05:32:38.059Z,2172.00
2022-08-17T05:33:13.481Z,2188.00
2022-08-17T05:34:13.480Z,2212.00
2022-08-17T05:35:13.685Z,2248.00
2022-08-17T05:37:08.522Z,2336.00
2022-08-17T05:38:09.541Z,2400.00
2022-08-17T05:39:10.772Z,2488.00
2022-08-17T05:40:09.558Z,2608.00
2022-08-17T05:41:09.486Z,2768.00
2022-08-17T05:42:09.462Z,2968.00
2022-08-17T05:43:09.453Z,3204.00
2022-08-17T05:44:09.452Z,3440.00
2022-08-17T05:45:09.499Z,3636.00
2022-08-17T05:46:09.421Z,3768.00
2022-08-17T05:47:09.757Z,3844.00
2022-08-17T05:48:09.430Z,3884.00
2022-08-17T05:49:09.399Z,3916.00
2022-08-17T05:50:10.094Z,3960.00
2022-08-17T05:51:09.375Z,4032.00
2022-08-17T05:52:09.358Z,4120.00
2022-08-17T05:53:09.366Z,4228.00
2022-08-17T05:54:09.354Z,4364.00
2022-08-17T05:55:09.411Z,4504.00
2022-08-17T05:56:13.098Z,4632.00
2022-08-17T05:57:09.316Z,4744.00
2022-08-17T05:58:09.316Z,4832.00
2022-08-17T05:59:13.490Z,4900.00
2022-08-17T06:00:10.054Z,4960.00
2022-08-17T06:01:09.345Z,5024.00
2022-08-17T06:02:09.278Z,5088.00
2022-08-17T06:03:09.255Z,5164.00
2022-08-17T06:04:09.988Z,5224.00
2022-08-17T06:05:09.236Z,5248.00
2022-08-17T06:06:09.243Z,5236.00
2022-08-17T06:07:09.211Z,5188.00
2022-08-17T06:08:09.216Z,5128.00
2022-08-17T06:09:09.172Z,5116.00
2022-08-17T06:10:09.213Z,5164.00
2022-08-17T06:11:10.036Z,5280.00
2022-08-17T06:12:09.139Z,5448.00
2022-08-17T06:13:09.123Z,5636.00
2022-08-17T06:14:09.126Z,5800.00
2022-08-17T06:15:09.212Z,5920.00
2022-08-17T06:16:28.199Z,5988.00
2022-08-17T06:17:09.107Z,5984.00
2022-08-17T06:18:09.080Z,5908.00
2022-08-17T06:19:09.046Z,5792.00
2022-08-17T06:20:09.062Z,5668.00
2022-08-17T06:21:09.057Z,5544.00
2022-08-17T06:22:09.023Z,5436.00
2022-08-17T06:23:09.023Z,5360.00
2022-08-17T06:24:09.005Z,5320.00
2022-08-17T06:25:10.004Z,5332.00
2022-08-17T06:26:09.063Z,5380.00
2022-08-17T06:27:08.988Z,5480.00
2022-08-17T06:28:08.960Z,5652.00
2022-08-17T06:29:08.941Z,5892.00
2022-08-17T06:30:08.942Z,6140.00
2022-08-17T06:31:08.920Z,6376.00
2022-08-17T06:32:08.910Z,6576.00
2022-08-17T06:33:08.890Z,6740.00
2022-08-17T06:34:08.917Z,6864.00
2022-08-17T06:35:08.861Z,6984.00
2022-08-17T06:36:09.518Z,7144.00
2022-08-17T06:37:08.883Z,7360.00
2022-08-17T06:38:08.860Z,7588.00
2022-08-17T06:39:08.843Z,7784.00
2022-08-17T06:40:08.852Z,7920.00
2022-08-17T06:41:08.863Z,7976.00
2022-08-17T06:42:08.810Z,8008.00
2022-08-17T06:43:09.244Z,8016.00
2022-08-17T06:44:08.776Z,8016.00
2022-08-17T06:45:08.774Z,8076.00
2022-08-17T06:46:08.807Z,8272.00
2022-08-17T06:47:08.979Z,8584.00
2022-08-17T06:48:08.727Z,8856.00
2022-08-17T06:49:08.721Z,9064.00
2022-08-17T06:50:08.715Z,9260.00
2022-08-17T06:51:08.731Z,9532.00
2022-08-17T06:52:08.681Z,9832.00
2022-08-17T06:53:08.878Z,10092.00
2022-08-17T06:54:08.678Z,10264.00
2022-08-17T06:55:08.656Z,10276.00
2022-08-17T06:56:08.637Z,10064.00
2022-08-17T06:57:08.662Z,9744.00
2022-08-17T06:58:15.735Z,9540.00
2022-08-17T06:59:08.631Z,9468.00
2022-08-17T07:00:08.959Z,9360.00
2022-08-17T07:01:08.616Z,9044.00
2022-08-17T07:02:08.578Z,8636.00
2022-08-17T07:03:08.842Z,8420.00
2022-08-17T07:04:11.885Z,8432.00
2022-08-17T07:05:08.542Z,8608.00
2022-08-17T07:06:08.541Z,8896.00
2022-08-17T07:07:08.533Z,9092.00
2022-08-17T07:08:08.492Z,9152.00
2022-08-17T07:09:08.506Z,9140.00
2022-08-17T07:10:08.475Z,9192.00
2022-08-17T07:11:08.463Z,9356.00
2022-08-17T07:12:08.506Z,9596.00
2022-08-17T07:13:08.463Z,9776.00
2022-08-17T07:14:08.662Z,9856.00
2022-08-17T07:15:08.425Z,10048.00
2022-08-17T07:16:08.619Z,10372.00
2022-08-17T07:17:08.427Z,10768.00
2022-08-17T07:18:08.387Z,11316.00
2022-08-17T07:19:08.397Z,11860.00
2022-08-17T07:20:08.374Z,12336.00
2022-08-17T07:21:08.391Z,12668.00
2022-08-17T07:22:08.342Z,12664.00
2022-08-17T07:23:08.359Z,12436.00
2022-08-17T07:24:08.375Z,12036.00
2022-08-17T07:25:08.318Z,11424.00
2022-08-17T07:26:08.334Z,10656.00
2022-08-17T07:27:08.360Z,10180.00
2022-08-17T07:28:08.298Z,9936.00
2022-08-17T07:29:08.275Z,9852.00
2022-08-17T07:30:10.865Z,9908.00
2022-08-17T07:31:08.313Z,10036.00
2022-08-17T07:32:08.258Z,9992.00
2022-08-17T07:33:08.228Z,10216.00
2022-08-17T07:34:08.224Z,10120.00
2022-08-17T07:35:08.234Z,9864.00
2022-08-17T07:36:08.205Z,10108.00
2022-08-17T07:37:08.200Z,10544.00
2022-08-17T07:38:24.776Z,10968.00
2022-08-17T07:39:08.179Z,11436.00
2022-08-17T07:40:15.971Z,11984.00
2022-08-17T07:41:08.142Z,12436.00
2022-08-17T07:42:08.131Z,12924.00
2022-08-17T07:43:08.170Z,13328.00
2022-08-17T07:44:08.108Z,13544.00
2022-08-17T07:45:08.310Z,13532.00
2022-08-17T07:46:08.076Z,13324.00
2022-08-17T07:47:08.066Z,13272.00
2022-08-17T07:48:08.071Z,13208.00
2022-08-17T07:49:08.052Z,12912.00
2022-08-17T07:50:08.096Z,12696.00
2022-08-17T07:51:08.042Z,12572.00
2022-08-17T07:52:13.566Z,12368.00
2022-08-17T07:53:08.059Z,12196.00
2022-08-17T07:54:14.383Z,12232.00
2022-08-17T07:55:08.014Z,12552.00
2022-08-17T07:56:08.581Z,13056.00
2022-08-17T07:57:08.181Z,13448.00
2022-08-17T07:58:07.969Z,13548.00
2022-08-17T07:59:07.982Z,13328.00
2022-08-17T08:00:07.930Z,13072.00
2022-08-17T08:01:07.961Z,12740.00
2022-08-17T08:02:08.066Z,12396.00
2022-08-17T08:03:07.904Z,12136.00
2022-08-17T08:04:07.876Z,11980.00
2022-08-17T08:05:08.635Z,11952.00
2022-08-17T08:06:07.856Z,11920.00
2022-08-17T08:07:08.558Z,11680.00
2022-08-17T08:08:07.837Z,11312.00
2022-08-17T08:09:07.843Z,11016.00
2022-08-17T08:10:07.833Z,10796.00
2022-08-17T08:11:07.807Z,10368.00
2022-08-17T08:12:07.806Z,9724.00
2022-08-17T08:13:07.811Z,9072.00
2022-08-17T08:14:08.487Z,8808.00
2022-08-17T08:15:07.819Z,9192.00
2022-08-17T08:16:07.758Z,9848.00
2022-08-17T08:17:09.216Z,9988.00
2022-08-17T08:18:07.723Z,9168.00
2022-08-17T08:19:07.744Z,7848.00
2022-08-17T08:20:44.654Z,6608.00
2022-08-17T08:21:07.699Z,5556.00
2022-08-17T08:22:07.690Z,4836.00
2022-08-17T08:23:07.674Z,4428.00
2022-08-17T08:24:07.668Z,4220.00
2022-08-17T08:25:07.669Z,4128.00
2022-08-17T08:26:07.658Z,4060.00
2022-08-17T08:27:07.665Z,3916.00
2022-08-17T08:28:07.616Z,3756.00
2022-08-17T08:29:07.610Z,3580.00
2022-08-17T08:30:07.592Z,3420.00
2022-08-17T08:31:07.637Z,3324.00
2022-08-17T08:32:08.729Z,3332.00
2022-08-17T08:33:07.574Z,3412.00
2022-08-17T08:34:07.543Z,3532.00
2022-08-17T08:35:07.540Z,3728.00
2022-08-17T08:36:07.555Z,3948.00
2022-08-17T08:37:16.529Z,4140.00
2022-08-17T08:38:07.521Z,4200.00
2022-08-17T08:39:07.498Z,4068.00
2022-08-17T08:40:07.552Z,3820.00
2022-08-17T08:41:07.478Z,3616.00
2022-08-17T08:42:07.505Z,3408.00
2022-08-17T08:43:07.456Z,3200.00
2022-08-17T08:44:07.454Z,3020.00
2022-08-17T08:45:07.497Z,2868.00
2022-08-17T08:46:07.431Z,2752.00
2022-08-17T08:47:07.437Z,2772.00
2022-08-17T08:48:12.791Z,2948.00
2022-08-17T08:49:12.282Z,3276.00
2022-08-17T08:50:07.374Z,3668.00
2022-08-17T08:51:07.362Z,4096.00
2022-08-17T08:52:07.408Z,4428.00
2022-08-17T08:53:07.347Z,4476.00
2022-08-17T08:54:07.350Z,4300.00
2022-08-17T08:55:07.322Z,3856.00
2022-08-17T08:56:07.323Z,3336.00
2022-08-17T08:57:33.675Z,2896.00
2022-08-17T08:58:07.330Z,2616.00
2022-08-17T08:59:07.262Z,2404.00
2022-08-17T09:00:07.271Z,2260.00
2022-08-17T09:01:16.786Z,2204.00
2022-08-17T09:02:07.262Z,2172.00
2022-08-17T09:03:07.221Z,2132.00
2022-08-17T09:04:23.178Z,2124.00
2022-08-17T09:05:15.581Z,2196.00
2022-08-17T09:06:38.686Z,2368.00
2022-08-17T09:07:07.234Z,2616.00
2022-08-17T09:08:07.180Z,2912.00
2022-08-17T09:09:07.209Z,3160.00
2022-08-17T09:10:07.168Z,3260.00
2022-08-17T09:11:07.146Z,3244.00
2022-08-17T09:12:07.133Z,3164.00
2022-08-17T09:13:10.124Z,3068.00
2022-08-17T09:14:07.110Z,3020.00
2022-08-17T09:15:10.897Z,3080.00
2022-08-17T09:16:07.125Z,3244.00
2022-08-17T09:17:07.068Z,3436.00
2022-08-17T09:19:01.090Z,3632.00
2022-08-17T09:19:08.758Z,3880.00
2022-08-17T09:20:07.026Z,4140.00
2022-08-17T09:21:07.084Z,4308.00
2022-08-17T09:22:07.020Z,4344.00
2022-08-17T09:23:07.002Z,4152.00
2022-08-17T09:24:07.005Z,3856.00
2022-08-17T09:25:06.984Z,3556.00
2022-08-17T09:26:06.980Z,3404.00
2022-08-17T09:27:07.594Z,3404.00
2022-08-17T09:28:06.941Z,3472.00
2022-08-17T09:29:06.951Z,3488.00
2022-08-17T09:30:06.963Z,3336.00
2022-08-17T09:31:06.929Z,3072.00
2022-08-17T09:32:06.899Z,2800.00
2022-08-17T09:33:07.605Z,2608.00
2022-08-17T09:34:07.098Z,2612.00
2022-08-17T09:35:07.594Z,2932.00
2022-08-17T09:36:06.843Z,3492.00
2022-08-17T09:37:06.835Z,4056.00
2022-08-17T09:38:06.837Z,4548.00
2022-08-17T09:39:07.841Z,4904.00
2022-08-17T09:40:06.902Z,5068.00
2022-08-17T09:41:06.820Z,5184.00
2022-08-17T09:42:07.587Z,5376.00
2022-08-17T09:43:06.785Z,5684.00
2022-08-17T09:44:09.601Z,6292.00
2022-08-17T09:45:06.775Z,6944.00
2022-08-17T09:46:06.735Z,7524.00
2022-08-17T09:47:06.850Z,8088.00
2022-08-17T09:48:06.732Z,8952.00
2022-08-17T09:49:06.712Z,10096.00
2022-08-17T09:50:06.691Z,11448.00
2022-08-17T09:51:06.901Z,13004.00
2022-08-17T09:52:06.675Z,14816.00
2022-08-17T09:53:06.657Z,16520.00
2022-08-17T09:54:36.829Z,18400.00
2022-08-17T09:55:06.655Z,20544.00
2022-08-17T09:56:06.633Z,23392.00
2022-08-17T09:57:28.437Z,29472.00
2022-08-17T09:58:06.652Z,25120.00
2022-08-17T09:59:06.601Z,22560.00
2022-08-17T10:00:06.584Z,22016.00
2022-08-17T10:01:06.642Z,22176.00
2022-08-17T10:02:06.566Z,20448.00
2022-08-17T10:03:06.555Z,18240.00
2022-08-17T10:04:06.540Z,16348.00
2022-08-17T10:05:06.564Z,15868.00
2022-08-17T10:06:06.859Z,16168.00
2022-08-17T10:07:06.500Z,16336.00
2022-08-17T10:08:06.538Z,16424.00
2022-08-17T10:09:06.484Z,16172.00
2022-08-17T10:10:09.648Z,17056.00
2022-08-17T10:11:09.024Z,19136.00
2022-08-17T10:12:06.546Z,22656.00
2022-08-17T10:13:06.435Z,26176.00
2022-08-17T10:14:36.050Z,26528.00
2022-08-17T10:15:08.165Z,28800.00
2022-08-17T10:16:06.692Z,28160.00
2022-08-17T10:17:06.428Z,27520.00
2022-08-17T10:18:06.427Z,27136.00
2022-08-17T10:19:06.379Z,28512.00
2022-08-17T10:20:07.608Z,33184.00
2022-08-17T10:21:06.355Z,31872.00
2022-08-17T10:22:15.008Z,59712.00
2022-08-17T10:23:06.355Z,41984.00
2022-08-17T10:24:06.342Z,87904.00
2022-08-17T10:25:23.784Z,83936.00
2022-08-17T10:26:06.300Z,82016.00
2022-08-17T10:27:06.309Z,86784.00
2022-08-17T10:28:06.283Z,75680.00
2022-08-17T10:29:06.278Z,70080.00
2022-08-17T10:30:06.360Z,73344.00
2022-08-17T10:32:06.267Z,74336.00
2022-08-17T10:33:06.226Z,66336.00
2022-08-17T10:34:06.214Z,70752.00
2022-08-17T10:35:06.231Z,61536.00
2022-08-17T10:36:10.555Z,69696.00
2022-08-17T10:37:06.188Z,69280.00
2022-08-17T10:38:06.185Z,75552.00
2022-08-17T10:39:06.175Z,84928.00
2022-08-17T10:40:06.223Z,69440.00
2022-08-17T10:41:06.194Z,63136.00
2022-08-17T10:42:06.160Z,68128.00
2022-08-17T10:43:06.147Z,42176.00
2022-08-17T10:44:39.516Z,41056.00
2022-08-17T10:45:06.121Z,53984.00
2022-08-17T10:46:29.838Z,47168.00
2022-08-17T10:47:06.100Z,32256.00
2022-08-17T10:48:07.151Z,41920.00
2022-08-17T10:49:06.124Z,39872.00
2022-08-17T10:50:06.053Z,35648.00
2022-08-17T10:51:06.081Z,31840.00
2022-08-17T10:52:06.069Z,29312.00
2022-08-17T10:53:06.041Z,27808.00
2022-08-17T10:54:06.039Z,26624.00
2022-08-17T10:55:06.026Z,26112.00
2022-08-17T10:56:05.999Z,26560.00
2022-08-17T10:57:05.983Z,26784.00
2022-08-17T10:58:05.985Z,27040.00
2022-08-17T10:59:05.968Z,27552.00
2022-08-17T11:00:06.003Z,27008.00
2022-08-17T11:01:06.007Z,27360.00
2022-08-17T11:02:05.962Z,28256.00
2022-08-17T11:03:05.927Z,29376.00
2022-08-17T11:04:05.924Z,31936.00
2022-08-17T11:05:06.160Z,36992.00
2022-08-17T11:06:05.889Z,37568.00
2022-08-17T11:07:05.893Z,47424.00
2022-08-17T11:08:07.327Z,30624.00
2022-08-17T11:09:05.875Z,27872.00
2022-08-17T11:10:05.870Z,26016.00
2022-08-17T11:11:05.846Z,26848.00
2022-08-17T11:12:06.074Z,20928.00
2022-08-17T11:13:05.816Z,18496.00
2022-08-17T11:14:05.830Z,16240.00
2022-08-17T11:15:05.825Z,14656.00
2022-08-17T11:16:08.388Z,13744.00
2022-08-17T11:17:05.804Z,13720.00
2022-08-17T11:18:06.646Z,14508.00
2022-08-17T11:19:05.771Z,15920.00
2022-08-17T11:20:05.794Z,17536.00
2022-08-17T11:21:05.750Z,18688.00
2022-08-17T11:22:05.758Z,19776.00
2022-08-17T11:23:05.713Z,20736.00
2022-08-17T11:24:05.699Z,21696.00
2022-08-17T11:25:05.695Z,22272.00
2022-08-17T11:26:05.685Z,22144.00
2022-08-17T11:27:06.623Z,21440.00
2022-08-17T11:28:05.672Z,21088.00
2022-08-17T11:29:05.653Z,20896.00
2022-08-17T11:30:05.874Z,20864.00
2022-08-17T11:31:05.637Z,21056.00
2022-08-17T11:32:05.636Z,22112.00
2022-08-17T11:33:06.142Z,23424.00
2022-08-17T11:34:05.594Z,23776.00
2022-08-17T11:35:05.596Z,24736.00
2022-08-17T11:36:05.615Z,29408.00
2022-08-17T11:37:11.347Z,26304.00
2022-08-17T11:38:06.958Z,28608.00
2022-08-17T11:39:05.565Z,42880.00
2022-08-17T11:40:08.088Z,35072.00
2022-08-17T11:41:05.575Z,30048.00
2022-08-17T11:42:05.546Z,54496.00
2022-08-17T11:43:05.528Z,53248.00
2022-08-17T11:44:05.494Z,55040.00
2022-08-17T11:45:05.527Z,59744.00
2022-08-17T11:46:05.477Z,52224.00
2022-08-17T11:47:12.014Z,49248.00
2022-08-17T11:49:05.458Z,33664.00
2022-08-17T11:50:05.430Z,40672.00
2022-08-17T11:51:05.510Z,43616.00
2022-08-17T11:52:05.422Z,117632.00
2022-08-17T11:53:05.414Z,94464.00
2022-08-17T11:54:31.233Z,66240.00
2022-08-17T11:55:31.957Z,87904.00
2022-08-17T11:56:05.380Z,93248.00
2022-08-17T11:57:05.391Z,91584.00
2022-08-17T11:58:05.348Z,91904.00
2022-08-17T11:59:05.358Z,75648.00
2022-08-17T12:00:05.334Z,75488.00
2022-08-17T12:01:06.156Z,81664.00
2022-08-17T12:02:05.402Z,51264.00
2022-08-17T12:03:05.395Z,93088.00
2022-08-17T12:04:05.324Z,95584.00
2022-08-17T12:05:05.326Z,99456.00
2022-08-17T12:06:05.293Z,101024.00
2022-08-17T12:07:05.270Z,85536.00
2022-08-17T12:08:05.277Z,74080.00
2022-08-17T12:09:05.346Z,72448.00
2022-08-17T12:10:05.236Z,73120.00
2022-08-17T12:11:05.268Z,84096.00
2022-08-17T12:12:12.395Z,80288.00
2022-08-17T12:13:05.466Z,67168.00
2022-08-17T12:14:05.199Z,64160.00
2022-08-17T12:15:10.551Z,56640.00
2022-08-17T12:16:05.194Z,41120.00
2022-08-17T12:17:05.197Z,45984.00
2022-08-17T12:18:05.383Z,81856.00
2022-08-17T12:19:05.146Z,85344.00
2022-08-17T12:20:05.163Z,86880.00
2022-08-17T12:21:05.146Z,85792.00
2022-08-17T12:22:05.225Z,86336.00
2022-08-17T12:23:05.166Z,84640.00
2022-08-17T12:24:05.146Z,81952.00
2022-08-17T12:25:05.305Z,80832.00
2022-08-17T12:26:05.325Z,81152.00
2022-08-17T12:27:05.098Z,79328.00
2022-08-17T12:28:07.666Z,74528.00
2022-08-17T12:29:05.254Z,75616.00
2022-08-17T12:30:05.111Z,77632.00
2022-08-17T12:31:05.670Z,78880.00
2022-08-17T12:32:05.057Z,76128.00
2022-08-17T12:33:05.026Z,72736.00
2022-08-17T12:34:05.045Z,72096.00
2022-08-17T12:35:05.025Z,69440.00
2022-08-17T12:36:05.039Z,68224.00
2022-08-17T12:37:04.987Z,64256.00
2022-08-17T12:38:05.002Z,57632.00
2022-08-17T12:39:14.023Z,53888.00
2022-08-17T12:40:05.105Z,51584.00
2022-08-17T12:41:05.011Z,50784.00
2022-08-17T12:42:04.990Z,49376.00
2022-08-17T12:43:04.981Z,49216.00
2022-08-17T12:44:04.942Z,48768.00
2022-08-17T12:45:04.959Z,48992.00
2022-08-17T12:46:13.102Z,50432.00
2022-08-17T12:47:05.012Z,49088.00
2022-08-17T12:48:04.934Z,50720.00
2022-08-17T12:49:04.921Z,50624.00
2022-08-17T12:50:04.940Z,50880.00
2022-08-17T12:51:04.909Z,50560.00
2022-08-17T12:52:04.906Z,48288.00
2022-08-17T12:53:04.924Z,26656.00
2022-08-17T12:54:05.091Z,24000.00
2022-08-17T12:55:05.083Z,23072.00
2022-08-17T12:56:04.858Z,22336.00
2022-08-17T12:57:04.841Z,19520.00
2022-08-17T12:58:04.844Z,19936.00
2022-08-17T12:59:04.852Z,20864.00
2022-08-17T13:00:04.846Z,24512.00
2022-08-17T13:01:04.794Z,36800.00
2022-08-17T13:02:04.865Z,55520.00
2022-08-17T13:03:04.804Z,55328.00
2022-08-17T13:04:04.774Z,52352.00
2022-08-17T13:05:04.787Z,52096.00
2022-08-17T13:06:04.789Z,48928.00
2022-08-17T13:07:04.790Z,52352.00
2022-08-17T13:08:04.775Z,52224.00
2022-08-17T13:09:04.765Z,51840.00
2022-08-17T13:10:04.860Z,49952.00
2022-08-17T13:11:04.735Z,25984.00
2022-08-17T13:12:05.168Z,22880.00
2022-08-17T13:13:04.704Z,22496.00
2022-08-17T13:14:04.698Z,19968.00
2022-08-17T13:15:04.694Z,20384.00
2022-08-17T13:16:04.668Z,21760.00
2022-08-17T13:17:13.472Z,24000.00
2022-08-17T13:18:04.656Z,25728.00
2022-08-17T13:19:04.633Z,28800.00
2022-08-17T13:20:04.711Z,56000.00
2022-08-17T13:21:04.627Z,46624.00
2022-08-17T13:22:04.622Z,39424.00
2022-08-17T13:23:07.581Z,39872.00
2022-08-17T13:24:04.666Z,54656.00
2022-08-17T13:25:04.655Z,49376.00
2022-08-17T13:26:04.563Z,31616.00
2022-08-17T13:27:08.082Z,32320.00
2022-08-17T13:28:04.567Z,41728.00
2022-08-17T13:29:04.567Z,36864.00
2022-08-17T13:30:04.541Z,50400.00
2022-08-17T13:31:04.562Z,50112.00
2022-08-17T13:32:04.843Z,45888.00
2022-08-17T13:33:04.879Z,36864.00
2022-08-17T13:34:04.523Z,24320.00
2022-08-17T13:35:14.993Z,23040.00
2022-08-17T13:36:04.480Z,22240.00
2022-08-17T13:37:11.028Z,21408.00
2022-08-17T13:38:04.505Z,19968.00
2022-08-17T13:39:04.431Z,20800.00
2022-08-17T13:40:04.707Z,24768.00
2022-08-17T13:41:04.430Z,28064.00
2022-08-17T13:42:04.503Z,29344.00
2022-08-17T13:43:04.412Z,39328.00
2022-08-17T13:44:04.412Z,57312.00
2022-08-17T13:45:32.311Z,36896.00
2022-08-17T13:46:04.406Z,26784.00
2022-08-17T13:47:04.365Z,24704.00
2022-08-17T13:48:04.361Z,33504.00
2022-08-17T13:49:04.372Z,24448.00
2022-08-17T13:50:04.342Z,26144.00
2022-08-17T13:51:04.333Z,28288.00
2022-08-17T13:52:04.408Z,27584.00
2022-08-17T13:53:04.342Z,29056.00
2022-08-17T13:54:04.318Z,34336.00
2022-08-17T13:55:04.340Z,62656.00
2022-08-17T13:56:04.290Z,56128.00
2022-08-17T13:57:04.283Z,64928.00
2022-08-17T13:58:07.051Z,63136.00
2022-08-17T13:59:04.248Z,60384.00
2022-08-17T14:00:04.243Z,50272.00
2022-08-17T14:01:04.272Z,58720.00
2022-08-17T14:02:04.346Z,33184.00
2022-08-17T14:03:04.224Z,27680.00
2022-08-17T14:04:04.203Z,22848.00
2022-08-17T14:05:06.302Z,27232.00
2022-08-17T14:06:04.184Z,20704.00
2022-08-17T14:07:04.173Z,19840.00
2022-08-17T14:08:06.582Z,19712.00
2022-08-17T14:09:04.152Z,20416.00
2022-08-17T14:10:04.161Z,21472.00
2022-08-17T14:11:04.126Z,21600.00
2022-08-17T14:12:04.272Z,21504.00
2022-08-17T14:13:04.118Z,21696.00
2022-08-17T14:14:04.101Z,22688.00
2022-08-17T14:15:04.091Z,23808.00
2022-08-17T14:16:04.074Z,24064.00
2022-08-17T14:17:04.091Z,25504.00
2022-08-17T14:18:04.075Z,27200.00
2022-08-17T14:19:04.054Z,27712.00
2022-08-17T14:20:04.039Z,27904.00
2022-08-17T14:21:04.034Z,27488.00
2022-08-17T14:22:04.034Z,25920.00
2022-08-17T14:23:04.172Z,24192.00
2022-08-17T14:24:04.003Z,23168.00
2022-08-17T14:25:03.985Z,24192.00
2022-08-17T14:26:04.024Z,27808.00
2022-08-17T14:27:03.985Z,50976.00
2022-08-17T14:28:04.003Z,51264.00
2022-08-17T14:29:03.990Z,52064.00
2022-08-17T14:30:03.951Z,54336.00
2022-08-17T14:31:03.938Z,47424.00
2022-08-17T14:32:03.948Z,53664.00
2022-08-17T14:33:03.953Z,53440.00
2022-08-17T14:34:03.899Z,52352.00
2022-08-17T14:35:03.913Z,52032.00
2022-08-17T14:36:03.878Z,52704.00
2022-08-17T14:37:03.935Z,52256.00
2022-08-17T14:38:03.882Z,49824.00
2022-08-17T14:39:03.887Z,47840.00
2022-08-17T14:40:04.027Z,46912.00
2022-08-17T14:41:03.829Z,47040.00
2022-08-17T14:42:03.862Z,46208.00
2022-08-17T14:43:03.839Z,46976.00
2022-08-17T14:44:03.806Z,45440.00
2022-08-17T14:45:03.809Z,28256.00
2022-08-17T14:46:03.796Z,35232.00
2022-08-17T14:47:03.766Z,47072.00
2022-08-17T14:48:03.795Z,48352.00
2022-08-17T14:49:03.779Z,48640.00
2022-08-17T14:50:03.747Z,47904.00
2022-08-17T14:51:03.737Z,47136.00
2022-08-17T14:52:03.774Z,46496.00
2022-08-17T14:53:03.733Z,45632.00
2022-08-17T14:54:03.740Z,43712.00
2022-08-17T14:55:03.711Z,43808.00
2022-08-17T14:56:03.696Z,43328.00
2022-08-17T14:57:24.521Z,42656.00
2022-08-17T14:58:03.686Z,43328.00
2022-08-17T14:59:03.669Z,43808.00
2022-08-17T15:00:03.663Z,44128.00
2022-08-17T15:01:03.726Z,43872.00
2022-08-17T15:02:03.634Z,44608.00
2022-08-17T15:03:03.645Z,41440.00
2022-08-17T15:04:03.619Z,43872.00
2022-08-17T15:05:03.637Z,43840.00
2022-08-17T15:06:03.612Z,44256.00
2022-08-17T15:07:03.598Z,43712.00
2022-08-17T15:08:03.584Z,18688.00
2022-08-17T15:09:03.580Z,16740.00
2022-08-17T15:10:03.648Z,19008.00
2022-08-17T15:11:04.281Z,40672.00
2022-08-17T15:12:04.476Z,45856.00
2022-08-17T15:13:03.564Z,48768.00
2022-08-17T15:14:03.542Z,32576.00
2022-08-17T15:15:04.929Z,51648.00
2022-08-17T15:16:03.519Z,54688.00
2022-08-17T15:17:03.504Z,32384.00
2022-08-17T15:18:03.989Z,53888.00
2022-08-17T15:19:03.493Z,37920.00
2022-08-17T15:20:03.514Z,25952.00
2022-08-17T15:21:03.478Z,39648.00
2022-08-17T15:22:03.467Z,56448.00
2022-08-17T15:23:03.451Z,33984.00
2022-08-17T15:24:03.425Z,41216.00
2022-08-17T15:25:03.423Z,61856.00
2022-08-17T15:26:03.420Z,62848.00
2022-08-17T15:27:03.409Z,62784.00
2022-08-17T15:28:03.454Z,60928.00
2022-08-17T15:29:03.402Z,63776.00
2022-08-17T15:30:03.429Z,66624.00
2022-08-17T15:31:03.392Z,69472.00
2022-08-17T15:32:03.421Z,72192.00
2022-08-17T15:33:03.359Z,74944.00
2022-08-17T15:34:03.339Z,73888.00
2022-08-17T15:35:03.331Z,73376.00
2022-08-17T15:36:03.320Z,71712.00
2022-08-17T15:37:03.306Z,67104.00
2022-08-17T15:38:09.794Z,66496.00
2022-08-17T15:39:03.314Z,66880.00
2022-08-17T15:40:03.376Z,65184.00
2022-08-17T15:41:03.266Z,64128.00
2022-08-17T15:42:03.261Z,60992.00
2022-08-17T15:43:03.259Z,56544.00
2022-08-17T15:44:03.261Z,52768.00
2022-08-17T15:45:03.245Z,48512.00
2022-08-17T15:46:03.224Z,47424.00
2022-08-17T15:47:03.772Z,47264.00
2022-08-17T15:48:03.256Z,45536.00
2022-08-17T15:49:03.208Z,43840.00
2022-08-17T15:50:03.228Z,41856.00
2022-08-17T15:51:03.174Z,41216.00
2022-08-17T15:52:03.168Z,41568.00
2022-08-17T15:53:03.163Z,40448.00
2022-08-17T15:54:04.305Z,38624.00
2022-08-17T15:55:03.156Z,37120.00
2022-08-17T15:56:03.155Z,36704.00
2022-08-17T15:57:09.659Z,37344.00
2022-08-17T15:58:03.121Z,36672.00
2022-08-17T15:59:03.172Z,35616.00
2022-08-17T16:00:03.103Z,35520.00
2022-08-17T16:01:16.645Z,34368.00
2022-08-17T16:03:13.775Z,34944.00
2022-08-17T16:04:01.543Z,33888.00